Tours-Val-de-Loire Airport

LFOT · Indre-et-Loire, Centre, 法国

罗盘
风向 的 Tours-Val-de-Loire Airport 2/20
风: 2 kt, 1 beaufort

2 kt

1 kt
改变
0 ft 1.000 2.000 3.000 4.000 5.000
CAVOK
METAR LFOT 190800Z AUTO VRB02KT CAVOK 17/12 Q1013 NOSIG

METAR Tours-Val-de-Loire Airport - LFOT/TUF

Tours-Val-de-Loire Airport是,法国中的中型机场。 该机场位于纬度47,43220和经度0,72761。 该机场有一条跑道: 2/20. 本场的ICAO机场代码为LFOT。 该机场的IATA代码为TUF。 机场在Paris FIR中。

该航空气象观测是针对Tours-Val-de-Loire Airport在2024年5月19日 10:00, 当地时间进行的。

机场观察

可变方向的风很小或没有风。

天气为CAVOK。这意味着在5.000 ft或MSA(最低安全高度)以下(以较高者为准)以下没有云。这也意味着没有观测到积雨云或高耸的积云,可见度为10 km 或者更多或更高。此外,不会有雾,降雨或其他重要天气。

温度和风寒是17 °C。 露点为12 °C,相对湿度为73%。 海平面上的气压为1013 hPa (QNH)。

白天

今天,太阳从06:14升起,在21:32降落。 这适用于Tours-Val-de-Loire Airport,世界夏令时可能有所不同。 当地时间与世界标准时间之间的时差为+2 小时。 夏令时目前正在进行中。

公司介绍

在这个机场,你可以找到飞行俱乐部。 本场上唯一已知的公司是Tours Aéroclub。

体会

到Vliegles.nl去找飞行课程,跳伞和其他飞行体验。 浏览页面,了解Tours-Val-de-Loire Airport附近所有可用的活动。 你也可以使用搜索功能来寻找你所在地附近的特定飞行课程、跳伞或其他飞行体验。

跑道

Id 标题 侧风 逆风 侧风 %
2/20 015°-195° 2 kt 26 %

逆风成分最大的方向会被突出显示,并用于横风计算。 这并不一定意味着这个方向在使用。

温度 & 天气

温度 17 °C
露点 12 °C
相对湿度 73%
Kp-index 1 (0-9)

白天

日出
06:14
中午
13:53
日落
21:32 (11:22)

小工具

你想在你的网站上有一个关于Tours-Val-de-Loire Airport的当前航空天气(METAR)的小部件吗?

显示HTML代码
报告变更